createdAt,value
2017-06-08T00:00:14.672Z,11.20
2017-06-08T00:02:43.649Z,11.20
2017-06-08T00:05:11.857Z,11.20
2017-06-08T00:07:40.109Z,11.30
2017-06-08T00:10:08.320Z,11.30
2017-06-08T00:12:36.528Z,11.30
2017-06-08T00:15:04.781Z,11.40
2017-06-08T00:17:32.991Z,11.50
2017-06-08T00:20:01.199Z,11.50
2017-06-08T00:22:29.441Z,11.60
2017-06-08T00:24:57.649Z,11.60
2017-06-08T00:27:25.856Z,11.60
2017-06-08T00:29:54.082Z,11.60
2017-06-08T00:32:22.319Z,11.60
2017-06-08T00:34:50.530Z,11.60
2017-06-08T00:37:19.515Z,11.70
2017-06-08T00:39:48.496Z,11.70
2017-06-08T00:42:16.702Z,11.70
2017-06-08T00:44:45.029Z,11.70
2017-06-08T00:47:13.235Z,11.70
2017-06-08T00:49:41.459Z,11.80
2017-06-08T00:52:09.699Z,11.70
2017-06-08T00:54:37.908Z,11.80
2017-06-08T00:57:06.120Z,11.80
2017-06-08T00:59:34.427Z,11.80
2017-06-08T01:02:02.631Z,11.80
2017-06-08T01:04:30.857Z,11.80
2017-06-08T01:06:59.845Z,11.70
2017-06-08T01:09:28.818Z,11.70
2017-06-08T01:11:57.026Z,11.70
2017-06-08T01:14:25.268Z,11.70
2017-06-08T01:16:53.474Z,11.70
2017-06-08T01:19:21.698Z,11.60
2017-06-08T01:21:49.923Z,11.70
2017-06-08T01:24:18.131Z,11.70
2017-06-08T01:26:46.341Z,11.80
2017-06-08T01:29:14.569Z,11.80
2017-06-08T01:31:42.776Z,11.90
2017-06-08T01:34:10.986Z,12.00
2017-06-08T01:36:39.986Z,12.00
2017-06-08T01:39:08.197Z,12.00
2017-06-08T01:41:36.467Z,12.10
2017-06-08T01:44:04.689Z,12.10
2017-06-08T01:46:33.664Z,12.10
2017-06-08T01:49:01.875Z,12.10
2017-06-08T01:51:29.902Z,12.10
2017-06-08T01:53:58.108Z,12.10
2017-06-08T01:56:27.080Z,12.10
2017-06-08T01:58:55.313Z,12.10
2017-06-08T02:01:23.527Z,12.10
2017-06-08T02:03:51.737Z,12.10
2017-06-08T02:06:19.977Z,12.10
2017-06-08T02:08:48.185Z,12.10
2017-06-08T02:11:16.400Z,12.10
2017-06-08T02:13:44.624Z,12.10
2017-06-08T02:16:13.577Z,12.20
2017-06-08T02:18:41.793Z,12.20
2017-06-08T02:21:10.781Z,12.20
2017-06-08T02:23:39.773Z,12.30
2017-06-08T02:26:07.980Z,12.30
2017-06-08T02:28:36.234Z,12.30
2017-06-08T02:31:04.892Z,12.40
2017-06-08T02:33:33.866Z,12.30
2017-06-08T02:36:02.091Z,12.30
2017-06-08T02:38:30.301Z,12.30
2017-06-08T02:40:58.509Z,12.30
2017-06-08T02:43:27.508Z,12.50
2017-06-08T02:45:56.485Z,12.50
2017-06-08T02:48:24.696Z,12.50
2017-06-08T02:50:53.025Z,12.50
2017-06-08T02:53:21.249Z,12.60
2017-06-08T02:55:49.457Z,12.60
2017-06-08T02:58:17.739Z,12.50
2017-06-08T03:00:45.938Z,12.50
2017-06-08T03:03:14.147Z,12.50
2017-06-08T03:05:42.368Z,12.40
2017-06-08T03:08:10.594Z,12.50
2017-06-08T03:10:38.817Z,12.40
2017-06-08T03:13:07.059Z,12.40
2017-06-08T03:15:35.267Z,12.50
2017-06-08T03:18:03.488Z,12.50
2017-06-08T03:20:31.699Z,12.50
2017-06-08T03:22:59.905Z,12.50
2017-06-08T03:25:28.113Z,12.50
2017-06-08T03:27:56.355Z,12.60
2017-06-08T03:30:24.406Z,12.60
2017-06-08T03:32:52.606Z,12.60
2017-06-08T03:35:21.593Z,12.70
2017-06-08T03:37:50.578Z,12.70
2017-06-08T03:40:18.793Z,12.70
2017-06-08T03:42:47.032Z,12.70
2017-06-08T03:45:16.009Z,12.80
2017-06-08T03:47:44.231Z,12.80
2017-06-08T03:50:12.469Z,12.90
2017-06-08T03:52:40.674Z,12.90
2017-06-08T03:55:08.886Z,12.90
2017-06-08T03:57:37.161Z,12.90
2017-06-08T04:00:05.373Z,12.90
2017-06-08T04:02:34.355Z,12.90
2017-06-08T04:05:02.586Z,12.90
2017-06-08T04:07:30.800Z,12.90
2017-06-08T04:09:59.020Z,13.00
2017-06-08T04:12:27.243Z,13.10
2017-06-08T04:14:55.470Z,13.10
2017-06-08T04:17:23.687Z,13.10
2017-06-08T04:19:51.915Z,13.20
2017-06-08T04:22:20.125Z,13.30
2017-06-08T04:24:48.322Z,13.30
2017-06-08T04:27:16.546Z,13.30
2017-06-08T04:29:44.737Z,13.40
2017-06-08T04:32:12.935Z,13.40
2017-06-08T04:34:41.158Z,13.50
2017-06-08T04:37:09.368Z,13.50
2017-06-08T04:39:37.576Z,13.50
2017-06-08T04:42:06.575Z,13.60
2017-06-08T04:44:35.549Z,13.70
2017-06-08T04:47:03.797Z,13.60
2017-06-08T04:49:32.035Z,13.80
2017-06-08T04:52:00.244Z,13.80
2017-06-08T04:54:28.454Z,13.80
2017-06-08T04:56:56.725Z,13.90
2017-06-08T04:59:24.946Z,13.90
2017-06-08T05:01:53.151Z,13.90
2017-06-08T05:04:21.511Z,13.90
2017-06-08T05:06:49.757Z,14.00
2017-06-08T05:09:17.693Z,14.00
2017-06-08T05:11:45.934Z,14.10
2017-06-08T05:14:14.175Z,14.10
2017-06-08T05:16:42.382Z,14.20
2017-06-08T05:19:10.617Z,14.20
2017-06-08T05:21:38.845Z,14.40
2017-06-08T05:24:07.064Z,14.50
2017-06-08T05:26:35.290Z,14.60
2017-06-08T05:29:03.498Z,14.80
2017-06-08T05:31:32.493Z,14.90
2017-06-08T05:34:01.553Z,15.00
2017-06-08T05:36:29.766Z,15.00
2017-06-08T05:38:58.725Z,15.20
2017-06-08T05:41:26.936Z,15.20
2017-06-08T05:43:55.161Z,15.10
2017-06-08T05:46:23.368Z,15.20
2017-06-08T05:48:52.468Z,15.30
2017-06-08T05:51:20.669Z,15.30
2017-06-08T05:53:48.908Z,15.30
2017-06-08T05:56:17.917Z,15.30
2017-06-08T05:58:46.894Z,15.30
2017-06-08T06:01:15.884Z,15.30
2017-06-08T06:03:44.115Z,15.30
2017-06-08T06:06:12.315Z,15.30
2017-06-08T06:08:40.525Z,15.30
2017-06-08T06:11:09.514Z,15.30
2017-06-08T06:13:38.474Z,15.40
2017-06-08T06:16:06.682Z,15.40
2017-06-08T06:18:34.921Z,15.40
2017-06-08T06:21:03.127Z,15.50
2017-06-08T06:23:32.090Z,15.60
2017-06-08T06:26:00.315Z,15.60
2017-06-08T06:28:28.538Z,15.60
2017-06-08T06:30:56.750Z,15.60
2017-06-08T06:33:24.982Z,15.60
2017-06-08T06:35:53.197Z,15.60
2017-06-08T06:38:21.416Z,15.70
2017-06-08T06:40:49.660Z,15.80
2017-06-08T06:43:17.869Z,15.80
2017-06-08T06:45:46.069Z,15.90
2017-06-08T06:48:14.305Z,16.00
2017-06-08T06:50:42.512Z,16.00
2017-06-08T06:53:10.708Z,16.00
2017-06-08T06:55:39.712Z,16.10
2017-06-08T06:58:07.930Z,16.10
2017-06-08T07:00:36.145Z,16.30
2017-06-08T07:03:05.153Z,16.90
2017-06-08T07:05:33.443Z,16.80
2017-06-08T07:08:01.673Z,16.90
2017-06-08T07:10:29.899Z,16.90
2017-06-08T07:12:58.122Z,16.80
2017-06-08T07:15:26.325Z,16.90
2017-06-08T07:17:54.556Z,16.90
2017-06-08T07:20:22.765Z,17.00
2017-06-08T07:22:50.988Z,17.00
2017-06-08T07:25:19.213Z,17.10
2017-06-08T07:27:48.189Z,17.20
2017-06-08T07:30:16.398Z,17.20
2017-06-08T07:32:44.620Z,17.20
2017-06-08T07:35:12.826Z,17.30
2017-06-08T07:37:41.059Z,17.40
2017-06-08T07:40:09.288Z,17.50
2017-06-08T07:42:37.507Z,17.60
2017-06-08T07:45:05.797Z,17.50
2017-06-08T07:47:34.021Z,17.50
2017-06-08T07:50:02.265Z,17.60
2017-06-08T07:52:31.245Z,17.40
2017-06-08T07:55:00.243Z,17.50
2017-06-08T07:57:29.235Z,17.50
2017-06-08T07:59:57.442Z,17.50
2017-06-08T08:02:37.113Z,17.40
2017-06-08T08:05:05.309Z,17.50
2017-06-08T08:07:33.518Z,17.50
2017-06-08T08:10:02.508Z,17.70
2017-06-08T08:12:31.483Z,17.80
2017-06-08T08:14:59.690Z,17.80
2017-06-08T08:17:27.914Z,18.00
2017-06-08T08:19:56.125Z,18.00
2017-06-08T08:22:24.334Z,18.30
2017-06-08T08:24:52.575Z,18.80
2017-06-08T08:27:20.781Z,19.00
2017-06-08T08:29:49.006Z,19.20
2017-06-08T08:32:18.089Z,19.70
2017-06-08T08:34:46.305Z,19.70
2017-06-08T08:37:14.520Z,19.80
2017-06-08T08:39:42.745Z,19.60
2017-06-08T08:42:10.991Z,19.40
2017-06-08T08:44:39.200Z,19.40
2017-06-08T08:47:07.432Z,19.60
2017-06-08T08:49:35.650Z,19.70
2017-06-08T08:52:03.943Z,19.80
2017-06-08T08:54:32.170Z,19.80
2017-06-08T08:57:00.371Z,20.00
2017-06-08T08:59:28.581Z,20.20
2017-06-08T09:01:56.830Z,20.60
2017-06-08T09:04:25.028Z,21.00
2017-06-08T09:06:53.237Z,21.10
2017-06-08T09:09:22.247Z,20.40
2017-06-08T09:11:50.467Z,20.40
2017-06-08T09:14:18.676Z,20.40
2017-06-08T09:16:46.901Z,20.30
2017-06-08T09:19:15.110Z,20.30
2017-06-08T09:21:43.319Z,20.20
2017-06-08T09:24:11.545Z,20.00
2017-06-08T09:26:39.752Z,19.90
2017-06-08T09:29:08.744Z,19.70
2017-06-08T09:31:37.729Z,19.60
2017-06-08T09:34:06.720Z,19.60
2017-06-08T09:36:35.724Z,19.70
2017-06-08T09:39:04.203Z,19.70
2017-06-08T09:41:32.423Z,19.70
2017-06-08T09:44:00.624Z,19.50
2017-06-08T09:46:28.840Z,19.50
2017-06-08T09:48:58.745Z,19.40
2017-06-08T09:51:27.726Z,19.80
2017-06-08T09:53:56.769Z,20.20
2017-06-08T09:56:24.968Z,20.10
2017-06-08T09:58:53.177Z,20.20
2017-06-08T10:01:22.168Z,20.00
2017-06-08T10:03:51.156Z,20.20
2017-06-08T10:06:20.129Z,20.30
2017-06-08T10:08:48.357Z,20.30
2017-06-08T10:11:16.563Z,20.50
2017-06-08T10:13:44.772Z,20.60
2017-06-08T10:16:13.012Z,20.70
2017-06-08T10:18:41.222Z,20.90
2017-06-08T10:21:09.445Z,21.00
2017-06-08T10:23:37.669Z,21.00
2017-06-08T10:26:05.888Z,20.90
2017-06-08T10:28:34.121Z,20.90
2017-06-08T10:31:02.356Z,20.80
2017-06-08T10:33:30.566Z,20.80
2017-06-08T10:35:58.755Z,20.70
2017-06-08T10:38:27.751Z,20.80
2017-06-08T10:40:56.717Z,20.70
2017-06-08T10:43:24.918Z,20.70
2017-06-08T10:45:53.141Z,20.80
2017-06-08T10:48:21.360Z,20.90
2017-06-08T10:50:50.335Z,21.00
2017-06-08T10:53:18.618Z,21.00
2017-06-08T10:55:46.828Z,20.90
2017-06-08T10:58:15.084Z,20.90
2017-06-08T11:00:43.341Z,21.20
2017-06-08T11:03:11.550Z,21.60
2017-06-08T11:05:39.759Z,21.80
2017-06-08T11:08:07.983Z,22.00
2017-06-08T11:10:36.208Z,22.20
2017-06-08T11:13:04.418Z,22.40
2017-06-08T11:15:32.643Z,22.40
2017-06-08T11:18:00.875Z,22.50
2017-06-08T11:20:29.104Z,22.70
2017-06-08T11:22:57.329Z,22.50
2017-06-08T11:25:25.537Z,22.00
2017-06-08T11:27:53.757Z,21.60
2017-06-08T11:30:22.094Z,21.50
2017-06-08T11:32:50.300Z,21.50
2017-06-08T11:35:18.493Z,21.70
2017-06-08T11:37:47.499Z,22.10
2017-06-08T11:40:16.476Z,22.40
2017-06-08T11:42:44.683Z,22.30
2017-06-08T11:45:12.921Z,22.70
2017-06-08T11:47:41.910Z,23.20
2017-06-08T11:50:10.104Z,23.20
2017-06-08T11:52:38.343Z,23.10
2017-06-08T11:55:06.561Z,22.80
2017-06-08T11:57:34.775Z,22.70
2017-06-08T12:00:02.744Z,22.80
2017-06-08T12:02:30.954Z,22.70
2017-06-08T12:04:59.164Z,22.90
2017-06-08T12:07:27.387Z,23.10
2017-06-08T12:09:55.596Z,23.10
2017-06-08T12:12:23.804Z,23.30
2017-06-08T12:14:52.029Z,23.40
2017-06-08T12:17:20.254Z,23.50
2017-06-08T12:19:48.462Z,23.70
2017-06-08T12:22:16.523Z,23.80
2017-06-08T12:24:44.568Z,23.80
2017-06-08T12:27:12.596Z,24.00
2017-06-08T12:29:41.582Z,24.00
2017-06-08T12:32:09.794Z,24.00
2017-06-08T12:34:38.001Z,23.80
2017-06-08T12:37:06.244Z,23.80
2017-06-08T12:39:34.466Z,24.00
2017-06-08T12:42:02.673Z,23.80
2017-06-08T12:44:30.911Z,23.90
2017-06-08T12:46:59.121Z,23.60
2017-06-08T12:49:27.344Z,23.80
2017-06-08T12:51:55.568Z,23.70
2017-06-08T12:54:23.779Z,23.40
2017-06-08T12:56:52.012Z,23.20
2017-06-08T12:59:20.240Z,23.10
2017-06-08T13:01:48.458Z,23.10
2017-06-08T13:04:16.673Z,22.80
2017-06-08T13:06:44.913Z,23.10
2017-06-08T13:09:13.123Z,23.40
2017-06-08T13:11:41.325Z,23.60
2017-06-08T13:14:09.574Z,23.60
2017-06-08T13:16:37.773Z,23.40
2017-06-08T13:19:05.988Z,23.30
2017-06-08T13:21:34.207Z,23.30
2017-06-08T13:24:02.406Z,23.10
2017-06-08T13:26:30.633Z,23.10
2017-06-08T13:28:58.870Z,23.10
2017-06-08T13:31:27.081Z,23.20
2017-06-08T13:33:55.288Z,23.40
2017-06-08T13:36:23.530Z,23.60
2017-06-08T13:38:51.752Z,23.80
2017-06-08T13:41:19.963Z,23.90
2017-06-08T13:43:48.185Z,23.80
2017-06-08T13:46:16.404Z,23.50
2017-06-08T13:48:44.615Z,23.50
2017-06-08T13:51:12.845Z,23.50
2017-06-08T13:53:41.055Z,23.70
2017-06-08T13:56:09.257Z,23.70
2017-06-08T13:58:37.497Z,23.80
2017-06-08T14:01:06.538Z,23.80
2017-06-08T14:03:34.761Z,23.80
2017-06-08T14:06:02.984Z,23.60
2017-06-08T14:08:32.059Z,23.50
2017-06-08T14:11:00.264Z,23.50
2017-06-08T14:13:28.514Z,23.70
2017-06-08T14:15:56.754Z,23.80
2017-06-08T14:18:24.977Z,23.70
2017-06-08T14:20:53.978Z,23.70
2017-06-08T14:23:22.960Z,23.70
2017-06-08T14:25:51.198Z,23.70
2017-06-08T14:28:19.460Z,23.60
2017-06-08T14:30:47.669Z,23.60
2017-06-08T14:33:15.914Z,23.50
2017-06-08T14:35:44.154Z,23.60
2017-06-08T14:38:12.378Z,23.70
2017-06-08T14:40:40.588Z,23.70
2017-06-08T14:43:08.826Z,23.60
2017-06-08T14:45:37.035Z,23.60
2017-06-08T14:48:06.007Z,23.80
2017-06-08T14:50:34.250Z,23.80
2017-06-08T14:53:02.461Z,23.80
2017-06-08T14:55:30.686Z,23.80
2017-06-08T14:57:58.985Z,23.80
2017-06-08T15:00:26.999Z,23.80
2017-06-08T15:02:55.207Z,23.80
2017-06-08T15:05:23.425Z,23.90
2017-06-08T15:07:51.643Z,23.90
2017-06-08T15:10:19.864Z,23.80
2017-06-08T15:12:48.101Z,23.80
2017-06-08T15:15:16.312Z,23.60
2017-06-08T15:17:44.577Z,23.60
2017-06-08T15:20:12.824Z,23.80
2017-06-08T15:22:41.154Z,24.10
2017-06-08T15:25:09.384Z,24.30
2017-06-08T15:27:37.618Z,24.50
2017-06-08T15:30:06.614Z,24.60
2017-06-08T15:32:35.684Z,24.50
2017-06-08T15:35:03.984Z,24.50
2017-06-08T15:37:32.205Z,24.30
2017-06-08T15:40:00.429Z,24.10
2017-06-08T15:42:28.656Z,24.10
2017-06-08T15:44:56.874Z,23.90
2017-06-08T15:47:25.856Z,23.70
2017-06-08T15:49:54.074Z,23.70
2017-06-08T15:52:22.290Z,23.60
2017-06-08T15:54:50.567Z,23.60
2017-06-08T15:57:18.868Z,23.60
2017-06-08T15:59:47.084Z,23.50
2017-06-08T16:02:15.307Z,23.40
2017-06-08T16:04:43.363Z,23.50
2017-06-08T16:07:11.569Z,23.50
2017-06-08T16:09:39.822Z,23.60
2017-06-08T16:12:08.054Z,23.60
2017-06-08T16:14:36.277Z,23.70
2017-06-08T16:17:05.251Z,23.50
2017-06-08T16:19:33.478Z,23.50
2017-06-08T16:22:01.686Z,23.50
2017-06-08T16:24:30.045Z,23.50
2017-06-08T16:26:58.299Z,23.60
2017-06-08T16:29:26.511Z,23.60
2017-06-08T16:31:54.748Z,23.80
2017-06-08T16:34:22.972Z,23.80
2017-06-08T16:36:51.210Z,23.90
2017-06-08T16:39:19.422Z,23.90
2017-06-08T16:41:47.645Z,23.80
2017-06-08T16:44:15.879Z,23.80
2017-06-08T16:46:44.110Z,23.80
2017-06-08T16:49:12.348Z,23.70
2017-06-08T16:51:40.557Z,23.70
2017-06-08T16:54:08.778Z,23.60
2017-06-08T16:56:37.015Z,23.60
2017-06-08T16:59:05.254Z,23.50
2017-06-08T17:01:33.558Z,23.50
2017-06-08T17:04:01.783Z,23.60
2017-06-08T17:06:30.009Z,23.60
2017-06-08T17:08:58.216Z,23.60
2017-06-08T17:11:26.457Z,23.70
2017-06-08T17:13:54.674Z,23.70
2017-06-08T17:16:22.889Z,23.80
2017-06-08T17:18:51.113Z,23.80
2017-06-08T17:21:19.325Z,23.80
2017-06-08T17:23:47.532Z,23.80
2017-06-08T17:26:15.774Z,23.80
2017-06-08T17:28:44.745Z,23.80
2017-06-08T17:31:13.725Z,23.70
2017-06-08T17:33:41.962Z,23.70
2017-06-08T17:36:10.162Z,23.60
2017-06-08T17:38:38.377Z,23.60
2017-06-08T17:41:07.370Z,23.50
2017-06-08T17:43:35.585Z,23.50
2017-06-08T17:46:03.809Z,23.50
2017-06-08T17:48:32.279Z,23.50
2017-06-08T17:51:01.256Z,23.50
2017-06-08T17:53:29.472Z,23.50
2017-06-08T17:55:57.727Z,23.50
2017-06-08T17:58:26.016Z,23.50
2017-06-08T18:00:54.236Z,23.40
2017-06-08T18:03:23.120Z,23.30
2017-06-08T18:05:52.146Z,23.30
2017-06-08T18:08:20.354Z,23.30
2017-06-08T18:10:48.688Z,23.30
2017-06-08T18:13:16.892Z,23.20
2017-06-08T18:15:45.877Z,23.20
2017-06-08T18:18:14.919Z,23.10
2017-06-08T18:20:43.142Z,23.10
2017-06-08T18:23:11.345Z,23.10
2017-06-08T18:25:39.573Z,23.00
2017-06-08T18:28:07.785Z,23.10
2017-06-08T18:30:36.013Z,23.00
2017-06-08T18:33:04.263Z,22.90
2017-06-08T18:35:32.471Z,22.90
2017-06-08T18:38:00.728Z,22.80
2017-06-08T18:40:28.964Z,22.90
2017-06-08T18:42:57.189Z,22.80
2017-06-08T18:45:25.386Z,22.70
2017-06-08T18:47:53.640Z,22.60
2017-06-08T18:50:21.847Z,22.50
2017-06-08T18:52:50.060Z,22.40
2017-06-08T18:55:18.320Z,22.30
2017-06-08T18:57:46.549Z,22.30
2017-06-08T19:00:14.769Z,22.20
2017-06-08T19:02:43.017Z,22.10
2017-06-08T19:05:11.224Z,22.10
2017-06-08T19:07:39.456Z,22.00
2017-06-08T19:10:07.700Z,22.00
2017-06-08T19:12:35.925Z,22.00
2017-06-08T19:15:04.149Z,21.90
2017-06-08T19:17:32.388Z,21.80
2017-06-08T19:20:00.596Z,21.60
2017-06-08T19:22:28.837Z,21.50
2017-06-08T19:24:57.061Z,21.40
2017-06-08T19:27:26.065Z,21.30
2017-06-08T19:29:54.874Z,21.30
2017-06-08T19:32:23.792Z,21.30
2017-06-08T19:34:53.321Z,21.30
2017-06-08T19:37:23.357Z,21.30
2017-06-08T19:39:53.106Z,21.20
2017-06-08T19:42:22.102Z,21.20
2017-06-08T19:44:50.400Z,21.10
2017-06-08T19:47:19.389Z,21.10
2017-06-08T19:49:47.615Z,21.00
2017-06-08T19:52:15.869Z,20.90
2017-06-08T19:54:44.106Z,20.80
2017-06-08T19:57:12.317Z,20.60
2017-06-08T19:59:40.570Z,20.50
2017-06-08T20:02:08.780Z,20.40
2017-06-08T20:04:37.019Z,20.40
2017-06-08T20:07:05.283Z,20.30
2017-06-08T20:09:33.500Z,20.00
2017-06-08T20:12:02.489Z,19.90
2017-06-08T20:14:30.725Z,19.90
2017-06-08T20:16:58.937Z,19.70
2017-06-08T20:19:27.177Z,19.60
2017-06-08T20:21:55.399Z,19.50
2017-06-08T20:24:23.638Z,19.40
2017-06-08T20:26:51.847Z,19.30
2017-06-08T20:29:20.086Z,19.10
2017-06-08T20:31:49.780Z,18.90
2017-06-08T20:34:17.990Z,18.80
2017-06-08T20:36:46.216Z,18.80
2017-06-08T20:39:14.424Z,18.80
2017-06-08T20:41:42.633Z,18.70
2017-06-08T20:44:10.971Z,18.80
2017-06-08T20:46:39.185Z,18.80
2017-06-08T20:49:07.389Z,18.80
2017-06-08T20:51:35.637Z,18.80
2017-06-08T20:54:03.868Z,18.90
2017-06-08T20:56:32.085Z,18.90
2017-06-08T20:59:00.330Z,18.90
2017-06-08T21:01:28.545Z,18.70
2017-06-08T21:03:56.768Z,18.60
2017-06-08T21:06:25.008Z,18.40
2017-06-08T21:08:53.200Z,18.30
2017-06-08T21:11:21.406Z,18.20
2017-06-08T21:13:50.416Z,18.20
2017-06-08T21:16:19.391Z,18.20
2017-06-08T21:18:47.603Z,18.20
2017-06-08T21:21:15.841Z,18.30
2017-06-08T21:23:44.841Z,18.00
2017-06-08T21:26:13.831Z,18.00
2017-06-08T21:28:42.822Z,18.10
2017-06-08T21:31:11.809Z,18.10
2017-06-08T21:33:40.019Z,18.10
2017-06-08T21:36:08.267Z,18.10
2017-06-08T21:38:37.248Z,18.20
2017-06-08T21:41:05.908Z,18.20
2017-06-08T21:43:34.129Z,18.30
2017-06-08T21:46:03.118Z,18.10
2017-06-08T21:48:32.092Z,18.10
2017-06-08T21:51:00.320Z,18.00
2017-06-08T21:53:28.525Z,18.00
2017-06-08T21:55:56.779Z,18.00
2017-06-08T21:58:25.003Z,18.00
2017-06-08T22:00:53.987Z,17.90
2017-06-08T22:03:23.027Z,17.80
2017-06-08T22:05:51.287Z,17.80
2017-06-08T22:08:19.553Z,17.70
2017-06-08T22:10:48.646Z,17.50
2017-06-08T22:13:17.638Z,17.50
2017-06-08T22:15:46.639Z,17.40
2017-06-08T22:18:14.862Z,17.40
2017-06-08T22:20:43.208Z,17.30
2017-06-08T22:23:11.455Z,17.10
2017-06-08T22:25:40.448Z,16.90
2017-06-08T22:28:08.707Z,16.90
2017-06-08T22:30:36.985Z,16.90
2017-06-08T22:33:06.110Z,16.80
2017-06-08T22:35:34.395Z,16.80
2017-06-08T22:38:02.603Z,16.80
2017-06-08T22:40:30.956Z,16.70
2017-06-08T22:42:59.157Z,16.80
2017-06-08T22:45:27.510Z,16.90
2017-06-08T22:47:55.757Z,16.90
2017-06-08T22:50:23.967Z,17.00
2017-06-08T22:52:52.258Z,17.20
2017-06-08T22:55:20.522Z,17.30
2017-06-08T22:57:48.895Z,17.50
2017-06-08T23:00:17.127Z,17.60
2017-06-08T23:02:45.357Z,17.70
2017-06-08T23:05:13.580Z,17.80
2017-06-08T23:07:42.612Z,17.90
2017-06-08T23:10:11.795Z,17.90
2017-06-08T23:12:40.038Z,17.90
2017-06-08T23:15:08.263Z,18.00
2017-06-08T23:17:36.513Z,18.10
2017-06-08T23:20:04.713Z,18.10
2017-06-08T23:22:33.232Z,18.20
2017-06-08T23:25:01.485Z,18.30
2017-06-08T23:27:29.745Z,18.30
2017-06-08T23:29:58.018Z,18.30
2017-06-08T23:32:26.284Z,18.30
2017-06-08T23:34:54.552Z,18.30
2017-06-08T23:37:22.787Z,18.30
2017-06-08T23:39:51.781Z,18.30
2017-06-08T23:42:20.060Z,18.30
2017-06-08T23:44:49.084Z,18.30
2017-06-08T23:47:18.550Z,18.30
2017-06-08T23:49:46.839Z,18.30
2017-06-08T23:52:15.118Z,18.30
2017-06-08T23:54:43.353Z,18.30
2017-06-08T23:57:11.557Z,18.30
2017-06-08T23:59:39.882Z,18.30
